Port Elizabeth, South Africa
Current Conditions -  °F | °C
As of 2:00 AM on Tuesday 21 Oct 2014 (Local Time) from FAPE Reporting Station
Clear Clear  
Wind Chill: 63°   Ceiling: Unl
Heat Index: 63°   Visibility: 6mi
Dew Point: 55°   Wind: 15mph
Humidity: 77%   Direction: 80°E
Pressure: 30.15"   Gusts: NA
Location:  33.96°S, 25.59°E
Report Text: FAPE 210000Z 08013KT CAVOK 17/13 Q1021 NOSIG
Loading
Personal Weather Stations






























Interactive Weather Map
Tropical Storm Tracking
New forecast layout! Learn more

10-Day Weather Forecast

Advertisements
Track Severe Weather on mobile